sensor_id;sensor_type;location;lat;lon;timestamp;pressure;altitude;pressure_sealevel;temperature;humidity
59154;BME280;44935;48.944;9.418;2023-08-06T00:02:08;97946.50;;;19.87;48.19
59154;BME280;44935;48.944;9.418;2023-08-06T00:04:37;97940.02;;;19.56;48.60
59154;BME280;44935;48.944;9.418;2023-08-06T00:07:05;97934.44;;;19.53;48.55
59154;BME280;44935;48.944;9.418;2023-08-06T00:09:32;97933.16;;;19.44;48.71
59154;BME280;44935;48.944;9.418;2023-08-06T00:11:59;97929.02;;;19.33;49.92
59154;BME280;44935;48.944;9.418;2023-08-06T00:14:26;97926.86;;;19.23;50.02
59154;BME280;44935;48.944;9.418;2023-08-06T00:16:54;97929.13;;;18.92;49.85
59154;BME280;44935;48.944;9.418;2023-08-06T00:19:22;97924.93;;;18.22;52.29
59154;BME280;44935;48.944;9.418;2023-08-06T00:21:49;97925.60;;;19.44;49.49
59154;BME280;44935;48.944;9.418;2023-08-06T00:24:16;97923.77;;;19.64;49.44
59154;BME280;44935;48.944;9.418;2023-08-06T00:26:43;97920.09;;;18.19;52.31
59154;BME280;44935;48.944;9.418;2023-08-06T00:29:10;97918.65;;;19.64;49.76
59154;BME280;44935;48.944;9.418;2023-08-06T00:31:37;97918.71;;;19.21;49.93
59154;BME280;44935;48.944;9.418;2023-08-06T00:34:03;97918.57;;;19.26;49.68
59154;BME280;44935;48.944;9.418;2023-08-06T00:36:30;97914.02;;;19.92;48.71
59154;BME280;44935;48.944;9.418;2023-08-06T00:38:57;97917.42;;;19.65;49.69
59154;BME280;44935;48.944;9.418;2023-08-06T00:41:24;97911.41;;;19.21;50.23
59154;BME280;44935;48.944;9.418;2023-08-06T00:43:51;97910.47;;;19.95;49.18
59154;BME280;44935;48.944;9.418;2023-08-06T00:46:17;97906.62;;;19.70;49.03
59154;BME280;44935;48.944;9.418;2023-08-06T00:48:45;97906.22;;;19.71;48.43
59154;BME280;44935;48.944;9.418;2023-08-06T00:51:13;97902.14;;;19.81;48.58
59154;BME280;44935;48.944;9.418;2023-08-06T00:53:41;97902.51;;;19.82;48.15
59154;BME280;44935;48.944;9.418;2023-08-06T00:56:09;97900.69;;;19.79;48.55
59154;BME280;44935;48.944;9.418;2023-08-06T00:58:36;97896.08;;;19.43;48.68
59154;BME280;44935;48.944;9.418;2023-08-06T01:01:05;97893.30;;;19.48;48.62
59154;BME280;44935;48.944;9.418;2023-08-06T01:03:32;97889.39;;;19.90;48.22
59154;BME280;44935;48.944;9.418;2023-08-06T01:05:59;97894.57;;;20.13;47.74
59154;BME280;44935;48.944;9.418;2023-08-06T01:08:33;97894.49;;;20.14;47.62
59154;BME280;44935;48.944;9.418;2023-08-06T01:11:17;97894.70;;;20.28;47.81
59154;BME280;44935;48.944;9.418;2023-08-06T01:13:54;97890.27;;;19.93;48.05
59154;BME280;44935;48.944;9.418;2023-08-06T01:16:26;97886.75;;;19.73;48.36
59154;BME280;44935;48.944;9.418;2023-08-06T01:18:53;97882.84;;;19.93;48.17
59154;BME280;44935;48.944;9.418;2023-08-06T01:21:20;97882.44;;;19.87;48.99
59154;BME280;44935;48.944;9.418;2023-08-06T01:23:47;97877.27;;;19.48;48.79
59154;BME280;44935;48.944;9.418;2023-08-06T01:26:22;97870.96;;;20.07;47.95
59154;BME280;44935;48.944;9.418;2023-08-06T01:28:56;97869.89;;;19.78;47.91
59154;BME280;44935;48.944;9.418;2023-08-06T01:31:28;97869.78;;;19.85;47.90
59154;BME280;44935;48.944;9.418;2023-08-06T01:33:58;97868.13;;;19.50;48.63
59154;BME280;44935;48.944;9.418;2023-08-06T01:36:27;97860.12;;;19.83;48.08
59154;BME280;44935;48.944;9.418;2023-08-06T01:38:55;97856.33;;;19.77;48.16
59154;BME280;44935;48.944;9.418;2023-08-06T01:41:22;97853.80;;;19.68;48.16
59154;BME280;44935;48.944;9.418;2023-08-06T01:43:50;97852.46;;;20.27;47.92
59154;BME280;44935;48.944;9.418;2023-08-06T01:46:16;97847.70;;;20.05;48.32
59154;BME280;44935;48.944;9.418;2023-08-06T01:48:44;97848.82;;;20.06;47.60
59154;BME280;44935;48.944;9.418;2023-08-06T01:51:11;97852.15;;;19.38;48.27
59154;BME280;44935;48.944;9.418;2023-08-06T01:53:38;97846.67;;;19.84;47.87
59154;BME280;44935;48.944;9.418;2023-08-06T01:56:05;97845.87;;;19.60;48.38
59154;BME280;44935;48.944;9.418;2023-08-06T01:58:32;97845.90;;;19.59;48.38
59154;BME280;44935;48.944;9.418;2023-08-06T02:00:59;97848.62;;;19.95;48.30
59154;BME280;44935;48.944;9.418;2023-08-06T02:03:25;97842.48;;;19.44;48.86
59154;BME280;44935;48.944;9.418;2023-08-06T02:05:52;97841.41;;;19.49;48.83
59154;BME280;44935;48.944;9.418;2023-08-06T02:08:19;97839.92;;;19.51;48.82
59154;BME280;44935;48.944;9.418;2023-08-06T02:10:46;97838.79;;;19.60;48.58
59154;BME280;44935;48.944;9.418;2023-08-06T02:13:13;97837.68;;;19.66;49.14
59154;BME280;44935;48.944;9.418;2023-08-06T02:15:42;97834.64;;;19.75;49.10
59154;BME280;44935;48.944;9.418;2023-08-06T02:18:10;97828.26;;;17.12;54.06
59154;BME280;44935;48.944;9.418;2023-08-06T02:20:37;97831.70;;;19.12;50.48
59154;BME280;44935;48.944;9.418;2023-08-06T02:23:04;97822.86;;;16.87;53.93
59154;BME280;44935;48.944;9.418;2023-08-06T02:25:31;97820.00;;;15.98;56.70
59154;BME280;44935;48.944;9.418;2023-08-06T02:27:58;97817.41;;;18.61;51.27
59154;BME280;44935;48.944;9.418;2023-08-06T02:30:25;97812.25;;;15.64;57.53
59154;BME280;44935;48.944;9.418;2023-08-06T02:32:52;97805.69;;;17.71;53.59
59154;BME280;44935;48.944;9.418;2023-08-06T02:35:19;97804.98;;;16.89;54.45
59154;BME280;44935;48.944;9.418;2023-08-06T02:37:45;97804.87;;;14.91;59.51
59154;BME280;44935;48.944;9.418;2023-08-06T02:40:12;97800.69;;;15.64;58.79
59154;BME280;44935;48.944;9.418;2023-08-06T02:42:39;97796.66;;;17.81;53.88
59154;BME280;44935;48.944;9.418;2023-08-06T02:45:07;97791.20;;;16.50;56.12
59154;BME280;44935;48.944;9.418;2023-08-06T02:47:35;97787.45;;;16.58;56.05
59154;BME280;44935;48.944;9.418;2023-08-06T02:50:02;97785.20;;;16.48;55.59
59154;BME280;44935;48.944;9.418;2023-08-06T02:52:29;97780.42;;;17.55;54.55
59154;BME280;44935;48.944;9.418;2023-08-06T02:54:55;97782.44;;;18.68;51.98
59154;BME280;44935;48.944;9.418;2023-08-06T02:57:22;97781.44;;;18.29;51.81
59154;BME280;44935;48.944;9.418;2023-08-06T02:59:49;97784.82;;;18.57;51.57
59154;BME280;44935;48.944;9.418;2023-08-06T03:02:16;97781.58;;;18.41;51.36
59154;BME280;44935;48.944;9.418;2023-08-06T03:04:43;97776.33;;;18.52;51.70
59154;BME280;44935;48.944;9.418;2023-08-06T03:07:10;97777.42;;;18.64;51.88
59154;BME280;44935;48.944;9.418;2023-08-06T03:09:37;97776.73;;;18.60;51.24
59154;BME280;44935;48.944;9.418;2023-08-06T03:12:04;97774.53;;;18.93;49.95
59154;BME280;44935;48.944;9.418;2023-08-06T03:14:31;97772.46;;;18.96;50.32
59154;BME280;44935;48.944;9.418;2023-08-06T03:16:58;97766.49;;;16.30;54.78
59154;BME280;44935;48.944;9.418;2023-08-06T03:19:25;97768.05;;;18.48;51.33
59154;BME280;44935;48.944;9.418;2023-08-06T03:21:52;97761.92;;;15.84;56.56
59154;BME280;44935;48.944;9.418;2023-08-06T03:24:19;97765.68;;;17.57;53.28
59154;BME280;44935;48.944;9.418;2023-08-06T03:26:46;97755.85;;;17.28;53.61
59154;BME280;44935;48.944;9.418;2023-08-06T03:29:13;97756.09;;;16.42;54.92
59154;BME280;44935;48.944;9.418;2023-08-06T03:31:40;97753.54;;;16.26;56.77
59154;BME280;44935;48.944;9.418;2023-08-06T03:34:07;97756.90;;;16.81;54.92
59154;BME280;44935;48.944;9.418;2023-08-06T03:36:33;97756.64;;;17.96;52.59
59154;BME280;44935;48.944;9.418;2023-08-06T03:39:00;97759.05;;;16.35;55.45
59154;BME280;44935;48.944;9.418;2023-08-06T03:41:27;97760.33;;;17.47;54.22
59154;BME280;44935;48.944;9.418;2023-08-06T03:43:54;97763.69;;;18.68;51.23
59154;BME280;44935;48.944;9.418;2023-08-06T03:46:21;97760.24;;;18.71;49.94
59154;BME280;44935;48.944;9.418;2023-08-06T03:48:48;97766.92;;;19.20;49.87
59154;BME280;44935;48.944;9.418;2023-08-06T03:51:15;97766.23;;;18.97;49.52
59154;BME280;44935;48.944;9.418;2023-08-06T03:53:42;97767.96;;;19.21;48.97
59154;BME280;44935;48.944;9.418;2023-08-06T03:56:09;97766.86;;;19.07;49.13
59154;BME280;44935;48.944;9.418;2023-08-06T03:58:35;97766.50;;;19.07;49.31
59154;BME280;44935;48.944;9.418;2023-08-06T04:01:03;97762.24;;;18.95;48.98
59154;BME280;44935;48.944;9.418;2023-08-06T04:03:30;97764.39;;;19.22;49.36
59154;BME280;44935;48.944;9.418;2023-08-06T04:05:57;97758.73;;;18.58;49.27
59154;BME280;44935;48.944;9.418;2023-08-06T04:08:24;97756.35;;;18.65;48.97
59154;BME280;44935;48.944;9.418;2023-08-06T04:10:52;97757.13;;;18.55;48.87
59154;BME280;44935;48.944;9.418;2023-08-06T04:13:19;97755.04;;;18.31;48.93
59154;BME280;44935;48.944;9.418;2023-08-06T04:15:46;97756.43;;;18.62;48.79
59154;BME280;44935;48.944;9.418;2023-08-06T04:18:13;97756.42;;;18.51;48.66
59154;BME280;44935;48.944;9.418;2023-08-06T04:20:43;97758.56;;;18.01;48.29
59154;BME280;44935;48.944;9.418;2023-08-06T04:23:10;97756.83;;;18.17;48.99
59154;BME280;44935;48.944;9.418;2023-08-06T04:25:36;97758.26;;;17.99;49.23
59154;BME280;44935;48.944;9.418;2023-08-06T04:28:04;97760.13;;;17.85;49.73
59154;BME280;44935;48.944;9.418;2023-08-06T04:30:30;97761.85;;;17.72;49.97
59154;BME280;44935;48.944;9.418;2023-08-06T04:32:57;97764.60;;;18.07;50.53
59154;BME280;44935;48.944;9.418;2023-08-06T04:35:24;97765.41;;;18.25;50.20
59154;BME280;44935;48.944;9.418;2023-08-06T04:37:51;97762.33;;;17.93;50.37
59154;BME280;44935;48.944;9.418;2023-08-06T04:40:18;97765.16;;;17.90;50.08
59154;BME280;44935;48.944;9.418;2023-08-06T04:42:45;97764.57;;;18.28;49.93
59154;BME280;44935;48.944;9.418;2023-08-06T04:45:11;97764.60;;;17.90;50.18
59154;BME280;44935;48.944;9.418;2023-08-06T04:47:38;97767.48;;;18.16;50.03
59154;BME280;44935;48.944;9.418;2023-08-06T04:50:06;97772.60;;;17.79;50.23
59154;BME280;44935;48.944;9.418;2023-08-06T04:52:33;97775.52;;;18.12;50.54
59154;BME280;44935;48.944;9.418;2023-08-06T04:55:00;97769.18;;;17.99;50.31
59154;BME280;44935;48.944;9.418;2023-08-06T04:57:27;97767.42;;;17.90;50.74
59154;BME280;44935;48.944;9.418;2023-08-06T04:59:54;97768.73;;;17.72;51.05
59154;BME280;44935;48.944;9.418;2023-08-06T05:02:21;97769.03;;;17.76;51.00
59154;BME280;44935;48.944;9.418;2023-08-06T05:04:48;97771.17;;;17.81;50.86
59154;BME280;44935;48.944;9.418;2023-08-06T05:07:15;97775.76;;;17.63;51.11
59154;BME280;44935;48.944;9.418;2023-08-06T05:09:42;97776.57;;;18.01;51.02
59154;BME280;44935;48.944;9.418;2023-08-06T05:12:09;97774.90;;;17.68;51.13
59154;BME280;44935;48.944;9.418;2023-08-06T05:14:36;97775.74;;;17.48;51.71
59154;BME280;44935;48.944;9.418;2023-08-06T05:17:03;97777.92;;;17.63;51.59
59154;BME280;44935;48.944;9.418;2023-08-06T05:19:31;97785.59;;;17.48;51.79
59154;BME280;44935;48.944;9.418;2023-08-06T05:21:58;97787.36;;;17.84;51.01
59154;BME280;44935;48.944;9.418;2023-08-06T05:24:25;97789.10;;;18.18;50.84
59154;BME280;44935;48.944;9.418;2023-08-06T05:26:52;97783.78;;;18.32;50.71
59154;BME280;44935;48.944;9.418;2023-08-06T05:29:18;97789.34;;;18.20;50.68
59154;BME280;44935;48.944;9.418;2023-08-06T05:31:45;97791.87;;;17.60;51.36
59154;BME280;44935;48.944;9.418;2023-08-06T05:34:12;97785.79;;;18.38;50.78
59154;BME280;44935;48.944;9.418;2023-08-06T05:36:39;97782.65;;;18.42;50.58
59154;BME280;44935;48.944;9.418;2023-08-06T05:39:06;97778.78;;;18.17;50.99
59154;BME280;44935;48.944;9.418;2023-08-06T05:41:33;97781.29;;;18.48;50.58
59154;BME280;44935;48.944;9.418;2023-08-06T05:44:00;97779.06;;;18.37;50.51
59154;BME280;44935;48.944;9.418;2023-08-06T05:46:27;97779.86;;;18.37;50.42
59154;BME280;44935;48.944;9.418;2023-08-06T05:48:53;97773.97;;;18.36;50.15
59154;BME280;44935;48.944;9.418;2023-08-06T05:51:20;97782.01;;;18.85;49.32
59154;BME280;44935;48.944;9.418;2023-08-06T05:53:47;97790.07;;;19.45;48.32
59154;BME280;44935;48.944;9.418;2023-08-06T05:56:14;97793.60;;;19.37;49.08
59154;BME280;44935;48.944;9.418;2023-08-06T05:58:41;97795.00;;;19.10;49.35
59154;BME280;44935;48.944;9.418;2023-08-06T06:01:08;97795.71;;;19.16;48.81
59154;BME280;44935;48.944;9.418;2023-08-06T06:03:35;97800.57;;;19.28;49.01
59154;BME280;44935;48.944;9.418;2023-08-06T06:06:02;97800.32;;;18.82;49.21
59154;BME280;44935;48.944;9.418;2023-08-06T06:08:29;97799.10;;;18.83;49.30
59154;BME280;44935;48.944;9.418;2023-08-06T06:10:55;97800.56;;;19.05;48.98
59154;BME280;44935;48.944;9.418;2023-08-06T06:13:22;97796.71;;;18.87;49.67
59154;BME280;44935;48.944;9.418;2023-08-06T06:15:49;97794.83;;;18.73;49.21
59154;BME280;44935;48.944;9.418;2023-08-06T06:18:16;97792.71;;;18.72;49.64
59154;BME280;44935;48.944;9.418;2023-08-06T06:20:43;97791.35;;;18.80;49.95
59154;BME280;44935;48.944;9.418;2023-08-06T06:23:10;97792.93;;;18.87;49.93
59154;BME280;44935;48.944;9.418;2023-08-06T06:25:42;97796.26;;;18.75;49.30
59154;BME280;44935;48.944;9.418;2023-08-06T06:28:09;97793.47;;;19.00;50.19
59154;BME280;44935;48.944;9.418;2023-08-06T06:30:36;97794.72;;;18.77;50.85
59154;BME280;44935;48.944;9.418;2023-08-06T06:33:03;97793.14;;;18.55;50.13
59154;BME280;44935;48.944;9.418;2023-08-06T06:35:30;97798.58;;;18.38;50.45
59154;BME280;44935;48.944;9.418;2023-08-06T06:37:56;97796.97;;;18.33;50.74
59154;BME280;44935;48.944;9.418;2023-08-06T06:40:23;97798.59;;;18.08;51.45
59154;BME280;44935;48.944;9.418;2023-08-06T06:42:50;97803.03;;;17.60;52.63
59154;BME280;44935;48.944;9.418;2023-08-06T06:45:17;97804.12;;;16.81;53.78
59154;BME280;44935;48.944;9.418;2023-08-06T06:47:44;97802.37;;;17.09;54.63
59154;BME280;44935;48.944;9.418;2023-08-06T06:50:11;97799.46;;;17.20;54.58
59154;BME280;44935;48.944;9.418;2023-08-06T06:52:38;97801.41;;;16.23;55.48
59154;BME280;44935;48.944;9.418;2023-08-06T06:55:06;97802.95;;;16.65;55.12
59154;BME280;44935;48.944;9.418;2023-08-06T06:57:33;97802.32;;;15.90;56.71
59154;BME280;44935;48.944;9.418;2023-08-06T07:00:00;97808.04;;;16.82;55.48
59154;BME280;44935;48.944;9.418;2023-08-06T07:02:27;97809.43;;;16.70;55.77
59154;BME280;44935;48.944;9.418;2023-08-06T07:04:53;97806.53;;;16.07;56.55
59154;BME280;44935;48.944;9.418;2023-08-06T07:07:20;97812.42;;;16.13;56.30
59154;BME280;44935;48.944;9.418;2023-08-06T07:09:47;97813.71;;;15.99;56.60
59154;BME280;44935;48.944;9.418;2023-08-06T07:12:14;97817.37;;;16.61;55.81
59154;BME280;44935;48.944;9.418;2023-08-06T07:14:41;97816.64;;;17.26;54.59
59154;BME280;44935;48.944;9.418;2023-08-06T07:17:08;97816.08;;;16.60;54.81
59154;BME280;44935;48.944;9.418;2023-08-06T07:19:35;97811.60;;;16.65;55.12
59154;BME280;44935;48.944;9.418;2023-08-06T07:22:02;97813.28;;;16.78;54.92
59154;BME280;44935;48.944;9.418;2023-08-06T07:24:29;97813.26;;;16.15;56.01
59154;BME280;44935;48.944;9.418;2023-08-06T07:26:55;97811.58;;;16.86;54.47
59154;BME280;44935;48.944;9.418;2023-08-06T07:29:22;97813.51;;;16.44;55.32
59154;BME280;44935;48.944;9.418;2023-08-06T07:31:49;97813.90;;;16.65;55.72
59154;BME280;44935;48.944;9.418;2023-08-06T07:34:16;97814.42;;;16.52;54.90
59154;BME280;44935;48.944;9.418;2023-08-06T07:36:44;97816.35;;;17.38;54.28
59154;BME280;44935;48.944;9.418;2023-08-06T07:39:11;97821.13;;;16.24;56.47
59154;BME280;44935;48.944;9.418;2023-08-06T07:41:38;97816.96;;;16.07;56.50
59154;BME280;44935;48.944;9.418;2023-08-06T07:44:04;97823.50;;;16.26;56.84
59154;BME280;44935;48.944;9.418;2023-08-06T07:46:31;97816.59;;;16.38;56.34
59154;BME280;44935;48.944;9.418;2023-08-06T07:48:58;97815.32;;;15.98;56.59
59154;BME280;44935;48.944;9.418;2023-08-06T07:51:25;97819.93;;;15.36;57.47
59154;BME280;44935;48.944;9.418;2023-08-06T07:53:52;97815.31;;;16.07;57.04
59154;BME280;44935;48.944;9.418;2023-08-06T07:56:19;97814.02;;;15.98;57.73
59154;BME280;44935;48.944;9.418;2023-08-06T07:58:46;97810.24;;;16.38;57.22
59154;BME280;44935;48.944;9.418;2023-08-06T08:01:12;97817.34;;;15.73;57.66
59154;BME280;44935;48.944;9.418;2023-08-06T08:03:39;97815.19;;;15.40;58.50
59154;BME280;44935;48.944;9.418;2023-08-06T08:06:06;97818.21;;;15.34;58.41
59154;BME280;44935;48.944;9.418;2023-08-06T08:08:33;97813.82;;;15.33;58.74
59154;BME280;44935;48.944;9.418;2023-08-06T08:11:00;97815.16;;;15.23;58.61
59154;BME280;44935;48.944;9.418;2023-08-06T08:13:27;97818.94;;;15.20;58.62
59154;BME280;44935;48.944;9.418;2023-08-06T08:15:57;97818.86;;;14.78;59.22
59154;BME280;44935;48.944;9.418;2023-08-06T08:18:24;97819.23;;;14.89;59.47
59154;BME280;44935;48.944;9.418;2023-08-06T08:20:51;97815.99;;;15.26;58.66
59154;BME280;44935;48.944;9.418;2023-08-06T08:23:19;97814.40;;;15.66;58.36
59154;BME280;44935;48.944;9.418;2023-08-06T08:25:46;97814.22;;;15.49;57.56
59154;BME280;44935;48.944;9.418;2023-08-06T08:28:12;97813.54;;;15.74;57.37
59154;BME280;44935;48.944;9.418;2023-08-06T08:30:40;97810.63;;;15.85;56.73
59154;BME280;44935;48.944;9.418;2023-08-06T08:33:08;97811.83;;;15.79;57.71
59154;BME280;44935;48.944;9.418;2023-08-06T08:35:36;97810.56;;;15.85;57.31
59154;BME280;44935;48.944;9.418;2023-08-06T08:38:03;97804.90;;;16.35;57.59
59154;BME280;44935;48.944;9.418;2023-08-06T08:40:32;97807.46;;;15.61;58.15
59154;BME280;44935;48.944;9.418;2023-08-06T08:43:00;97808.51;;;15.45;56.79
59154;BME280;44935;48.944;9.418;2023-08-06T08:45:29;97809.12;;;15.27;60.07
59154;BME280;44935;48.944;9.418;2023-08-06T08:47:56;97807.59;;;15.28;57.61
59154;BME280;44935;48.944;9.418;2023-08-06T08:50:24;97804.28;;;16.23;55.97
59154;BME280;44935;48.944;9.418;2023-08-06T08:52:51;97801.67;;;16.49;56.03
59154;BME280;44935;48.944;9.418;2023-08-06T08:55:20;97797.33;;;16.12;55.71
59154;BME280;44935;48.944;9.418;2023-08-06T08:57:48;97799.70;;;15.95;56.35
59154;BME280;44935;48.944;9.418;2023-08-06T09:00:15;97798.54;;;16.75;55.28
59154;BME280;44935;48.944;9.418;2023-08-06T09:02:42;97793.69;;;15.97;55.61
59154;BME280;44935;48.944;9.418;2023-08-06T09:05:09;97793.83;;;16.77;54.99
59154;BME280;44935;48.944;9.418;2023-08-06T09:07:42;97794.09;;;16.82;55.04
59154;BME280;44935;48.944;9.418;2023-08-06T09:10:11;97794.57;;;16.85;54.51
59154;BME280;44935;48.944;9.418;2023-08-06T09:12:39;97798.29;;;17.29;54.68
59154;BME280;44935;48.944;9.418;2023-08-06T09:15:07;97797.67;;;17.19;53.91
59154;BME280;44935;48.944;9.418;2023-08-06T09:17:33;97798.37;;;16.71;55.43
59154;BME280;44935;48.944;9.418;2023-08-06T09:20:10;97798.72;;;16.92;55.34
59154;BME280;44935;48.944;9.418;2023-08-06T09:22:37;97819.99;;;15.97;58.56
59154;BME280;44935;48.944;9.418;2023-08-06T09:25:04;97829.99;;;15.63;59.51
59154;BME280;44935;48.944;9.418;2023-08-06T09:27:31;97825.99;;;14.97;61.71
59154;BME280;44935;48.944;9.418;2023-08-06T09:29:58;97823.09;;;14.18;64.32
59154;BME280;44935;48.944;9.418;2023-08-06T09:32:25;97824.18;;;14.11;65.41
59154;BME280;44935;48.944;9.418;2023-08-06T09:34:56;97828.48;;;14.79;64.21
59154;BME280;44935;48.944;9.418;2023-08-06T09:37:23;97831.64;;;14.69;63.34
59154;BME280;44935;48.944;9.418;2023-08-06T09:39:52;97832.59;;;14.48;62.71
59154;BME280;44935;48.944;9.418;2023-08-06T09:42:18;97843.81;;;14.98;61.46
59154;BME280;44935;48.944;9.418;2023-08-06T09:44:45;97839.35;;;15.29;62.19
59154;BME280;44935;48.944;9.418;2023-08-06T09:47:16;97838.62;;;15.13;61.42
59154;BME280;44935;48.944;9.418;2023-08-06T09:49:43;97836.85;;;14.90;61.81
59154;BME280;44935;48.944;9.418;2023-08-06T09:52:12;97836.32;;;14.82;62.71
59154;BME280;44935;48.944;9.418;2023-08-06T09:54:39;97841.01;;;15.16;62.17
59154;BME280;44935;48.944;9.418;2023-08-06T09:57:08;97826.44;;;15.75;60.97
59154;BME280;44935;48.944;9.418;2023-08-06T09:59:37;97838.37;;;15.94;60.37
59154;BME280;44935;48.944;9.418;2023-08-06T10:02:10;97836.34;;;15.27;61.59
59154;BME280;44935;48.944;9.418;2023-08-06T10:04:39;97840.41;;;15.20;62.72
59154;BME280;44935;48.944;9.418;2023-08-06T10:07:06;97846.07;;;15.05;62.02
59154;BME280;44935;48.944;9.418;2023-08-06T10:09:33;97845.08;;;14.72;63.63
59154;BME280;44935;48.944;9.418;2023-08-06T10:12:00;97843.84;;;14.89;62.11
59154;BME280;44935;48.944;9.418;2023-08-06T10:14:32;97840.30;;;14.38;63.34
59154;BME280;44935;48.944;9.418;2023-08-06T10:17:00;97837.72;;;14.15;63.82
59154;BME280;44935;48.944;9.418;2023-08-06T10:19:29;97836.71;;;14.73;62.55
59154;BME280;44935;48.944;9.418;2023-08-06T10:22:14;97835.03;;;15.01;60.94
59154;BME280;44935;48.944;9.418;2023-08-06T10:24:49;97844.41;;;14.63;63.52
59154;BME280;44935;48.944;9.418;2023-08-06T10:27:22;97839.12;;;14.68;64.09
59154;BME280;44935;48.944;9.418;2023-08-06T10:29:50;97837.65;;;14.62;62.71
59154;BME280;44935;48.944;9.418;2023-08-06T10:32:17;97838.43;;;14.72;62.50
59154;BME280;44935;48.944;9.418;2023-08-06T10:34:59;97838.48;;;14.47;63.05
59154;BME280;44935;48.944;9.418;2023-08-06T10:37:35;97842.92;;;13.82;63.36
59154;BME280;44935;48.944;9.418;2023-08-06T10:40:03;97844.36;;;13.51;63.50
59154;BME280;44935;48.944;9.418;2023-08-06T10:42:33;97848.07;;;13.09;64.05
59154;BME280;44935;48.944;9.418;2023-08-06T10:45:17;97846.12;;;13.53;65.25
59154;BME280;44935;48.944;9.418;2023-08-06T10:47:46;97846.57;;;13.59;64.95
59154;BME280;44935;48.944;9.418;2023-08-06T10:50:15;97843.52;;;14.19;62.86
59154;BME280;44935;48.944;9.418;2023-08-06T10:52:42;97839.77;;;13.87;62.29
59154;BME280;44935;48.944;9.418;2023-08-06T10:55:10;97851.29;;;13.91;63.12
59154;BME280;44935;48.944;9.418;2023-08-06T10:57:36;97845.36;;;13.69;63.06
59154;BME280;44935;48.944;9.418;2023-08-06T11:00:05;97848.47;;;13.90;63.05
59154;BME280;44935;48.944;9.418;2023-08-06T11:02:34;97848.68;;;13.74;62.02
59154;BME280;44935;48.944;9.418;2023-08-06T11:05:05;97845.89;;;13.82;63.28
59154;BME280;44935;48.944;9.418;2023-08-06T11:07:33;97852.63;;;13.85;62.55
59154;BME280;44935;48.944;9.418;2023-08-06T11:10:03;97850.30;;;13.04;63.96
59154;BME280;44935;48.944;9.418;2023-08-06T11:12:30;97858.45;;;12.55;66.64
59154;BME280;44935;48.944;9.418;2023-08-06T11:14:57;97868.64;;;12.89;65.92
59154;BME280;44935;48.944;9.418;2023-08-06T11:17:24;97861.77;;;12.28;66.57
59154;BME280;44935;48.944;9.418;2023-08-06T11:19:52;97871.72;;;12.52;66.74
59154;BME280;44935;48.944;9.418;2023-08-06T11:22:19;97877.19;;;12.03;69.50
59154;BME280;44935;48.944;9.418;2023-08-06T11:24:47;97878.43;;;11.56;69.25
59154;BME280;44935;48.944;9.418;2023-08-06T11:27:14;97885.18;;;11.41;68.96
59154;BME280;44935;48.944;9.418;2023-08-06T11:29:42;97884.89;;;12.13;68.52
59154;BME280;44935;48.944;9.418;2023-08-06T11:32:10;97882.73;;;11.81;67.99
59154;BME280;44935;48.944;9.418;2023-08-06T11:34:38;97877.69;;;12.17;67.92
59154;BME280;44935;48.944;9.418;2023-08-06T11:37:06;97879.46;;;11.91;67.53
59154;BME280;44935;48.944;9.418;2023-08-06T11:39:34;97880.57;;;12.15;67.78
59154;BME280;44935;48.944;9.418;2023-08-06T11:42:03;97882.86;;;12.25;66.62
59154;BME280;44935;48.944;9.418;2023-08-06T11:44:31;97881.96;;;12.08;67.00
59154;BME280;44935;48.944;9.418;2023-08-06T11:46:59;97874.07;;;12.21;66.59
59154;BME280;44935;48.944;9.418;2023-08-06T11:49:38;97885.24;;;12.76;65.50
59154;BME280;44935;48.944;9.418;2023-08-06T11:52:10;97885.83;;;12.10;66.28
59154;BME280;44935;48.944;9.418;2023-08-06T11:54:37;97890.32;;;11.84;67.85
59154;BME280;44935;48.944;9.418;2023-08-06T11:57:05;97888.63;;;12.38;67.43
59154;BME280;44935;48.944;9.418;2023-08-06T11:59:32;97902.21;;;12.72;66.67
59154;BME280;44935;48.944;9.418;2023-08-06T12:02:01;97900.48;;;12.31;67.47
59154;BME280;44935;48.944;9.418;2023-08-06T12:04:29;97909.07;;;12.42;67.04
59154;BME280;44935;48.944;9.418;2023-08-06T12:07:04;97915.06;;;12.12;67.74
59154;BME280;44935;48.944;9.418;2023-08-06T12:09:31;97927.19;;;12.56;68.28
59154;BME280;44935;48.944;9.418;2023-08-06T12:11:58;97927.34;;;11.60;69.45
59154;BME280;44935;48.944;9.418;2023-08-06T12:14:25;97927.37;;;11.16;72.31
59154;BME280;44935;48.944;9.418;2023-08-06T12:16:52;97936.10;;;11.50;72.06
59154;BME280;44935;48.944;9.418;2023-08-06T12:19:19;97937.23;;;11.58;71.75
59154;BME280;44935;48.944;9.418;2023-08-06T12:21:46;97947.20;;;11.18;72.37
59154;BME280;44935;48.944;9.418;2023-08-06T12:24:13;97947.61;;;11.37;72.06
59154;BME280;44935;48.944;9.418;2023-08-06T12:26:40;97951.89;;;11.42;72.03
59154;BME280;44935;48.944;9.418;2023-08-06T12:29:07;97958.55;;;11.47;71.59
59154;BME280;44935;48.944;9.418;2023-08-06T12:31:34;97964.13;;;11.63;70.90
59154;BME280;44935;48.944;9.418;2023-08-06T12:34:01;97970.87;;;11.54;71.35
59154;BME280;44935;48.944;9.418;2023-08-06T12:36:28;97972.44;;;11.23;70.53
59154;BME280;44935;48.944;9.418;2023-08-06T12:38:55;97979.75;;;11.85;70.52
59154;BME280;44935;48.944;9.418;2023-08-06T12:41:22;97990.47;;;11.24;72.16
59154;BME280;44935;48.944;9.418;2023-08-06T12:43:49;97991.93;;;11.69;70.49
59154;BME280;44935;48.944;9.418;2023-08-06T12:46:16;97989.12;;;11.76;70.41
59154;BME280;44935;48.944;9.418;2023-08-06T12:48:43;97992.69;;;11.44;71.29
59154;BME280;44935;48.944;9.418;2023-08-06T12:51:10;97995.82;;;11.30;72.53
59154;BME280;44935;48.944;9.418;2023-08-06T12:53:37;97996.63;;;11.94;71.36
59154;BME280;44935;48.944;9.418;2023-08-06T12:56:04;97998.43;;;11.93;70.26
59154;BME280;44935;48.944;9.418;2023-08-06T12:58:30;98002.00;;;12.08;70.23
59154;BME280;44935;48.944;9.418;2023-08-06T13:00:57;98004.65;;;12.24;69.46
59154;BME280;44935;48.944;9.418;2023-08-06T13:03:24;98005.70;;;11.84;69.71